Time;durP1;ratioP1;P1;durP2;ratioP2;P2;SDS_P1;SDS_P2;PMS_P1;PMS_P2;Temp;Humidity;BMP_temperature;BMP_pressure;BME280_temperature;BME280_humidity;BME280_pressure;Samples;Min_cycle;Max_cycle;Signal;HPM_P1;HPM_P2
2022/09/04 00:01:02;;;;;;;1999.90;999.90;;;;;;;;;;5076337;28;20865;-70
2022/09/04 00:03:36;;;;;;;1999.90;999.90;;;;;;;;;;5068119;28;20560;-71
2022/09/04 00:06:05;;;;;;;1999.90;999.90;;;;;;;;;;5082022;28;20476;-70
2022/09/04 00:08:48;;;;;;;1999.90;999.90;;;;;;;;;;5069290;28;20908;-70
2022/09/04 00:11:23;;;;;;;1999.90;999.90;;;;;;;;;;5066520;28;20412;-71
2022/09/04 00:13:56;;;;;;;1999.90;999.90;;;;;;;;;;5067812;28;20417;-71
2022/09/04 00:16:26;;;;;;;1999.90;999.90;;;;;;;;;;5067516;28;20884;-71
2022/09/04 00:18:57;;;;;;;1999.90;999.90;;;;;;;;;;5069575;28;20406;-71
2022/09/04 00:21:27;;;;;;;1999.90;999.90;;;;;;;;;;5069076;28;20413;-70
2022/09/04 00:23:57;;;;;;;1999.90;999.90;;;;;;;;;;5066875;28;20396;-71
2022/09/04 00:26:29;;;;;;;1999.90;999.90;;;;;;;;;;5086089;27;20398;-71
2022/09/04 00:29:00;;;;;;;1999.90;999.90;;;;;;;;;;5068504;28;20403;-71
2022/09/04 00:31:30;;;;;;;1999.90;999.90;;;;;;;;;;5067696;28;20447;-70
2022/09/04 00:34:06;;;;;;;1999.90;999.90;;;;;;;;;;5067242;28;20424;-70
2022/09/04 00:36:35;;;;;;;1999.90;999.90;;;;;;;;;;5064669;28;20417;-71
2022/09/04 00:39:08;;;;;;;1999.90;999.90;;;;;;;;;;5069789;28;20562;-71
2022/09/04 00:41:44;;;;;;;1999.90;999.90;;;;;;;;;;5068982;28;20412;-70
2022/09/04 00:44:27;;;;;;;1999.90;999.90;;;;;;;;;;5077893;28;20897;-71
2022/09/04 00:47:14;;;;;;;1999.90;999.90;;;;;;;;;;5081284;28;20464;-69
2022/09/04 00:49:44;;;;;;;1999.90;999.90;;;;;;;;;;5064665;28;20402;-71
2022/09/04 00:52:23;;;;;;;1999.90;999.90;;;;;;;;;;5069178;28;20403;-70
2022/09/04 00:55:12;;;;;;;1999.90;999.90;;;;;;;;;;5063784;28;20422;-70
2022/09/04 00:58:04;;;;;;;1999.90;999.90;;;;;;;;;;5069895;28;20839;-71
2022/09/04 01:00:31;;;;;;;1999.90;999.90;;;;;;;;;;5049374;28;20403;-71
2022/09/04 01:03:18;;;;;;;1999.90;999.90;;;;;;;;;;5068163;28;20470;-70
2022/09/04 01:06:00;;;;;;;1999.90;999.90;;;;;;;;;;5069077;28;20410;-71
2022/09/04 01:08:39;;;;;;;1999.90;999.90;;;;;;;;;;5078766;28;20393;-70
2022/09/04 01:11:13;;;;;;;1999.90;999.90;;;;;;;;;;5088804;27;20398;-71
2022/09/04 01:13:43;;;;;;;1999.90;999.90;;;;;;;;;;5067486;28;20434;-70
2022/09/04 01:16:13;;;;;;;1999.90;999.90;;;;;;;;;;5065822;28;20422;-70
2022/09/04 01:18:45;;;;;;;1999.90;999.90;;;;;;;;;;5068100;28;20400;-71
2022/09/04 01:21:27;;;;;;;1999.90;999.90;;;;;;;;;;5068586;28;20391;-70
2022/09/04 01:24:08;;;;;;;1999.90;999.90;;;;;;;;;;5067479;28;20392;-70
2022/09/04 01:26:43;;;;;;;1999.90;999.90;;;;;;;;;;5067369;28;20404;-70
2022/09/04 01:29:15;;;;;;;1999.90;999.90;;;;;;;;;;5067228;28;20432;-70
2022/09/04 01:31:47;;;;;;;1999.90;999.90;;;;;;;;;;5066939;28;20440;-70
2022/09/04 01:34:29;;;;;;;1999.90;999.90;;;;;;;;;;5065968;28;20443;-70
2022/09/04 01:37:00;;;;;;;1999.90;999.90;;;;;;;;;;5065551;28;20409;-71
2022/09/04 01:39:29;;;;;;;1999.90;999.90;;;;;;;;;;5066325;28;20465;-70
2022/09/04 01:42:00;;;;;;;1999.90;999.90;;;;;;;;;;5067603;28;20397;-70
2022/09/04 01:44:29;;;;;;;1999.90;999.90;;;;;;;;;;5066745;28;20891;-70
2022/09/04 01:47:03;;;;;;;1999.90;999.90;;;;;;;;;;5066654;28;20399;-70
2022/09/04 01:49:32;;;;;;;1999.90;999.90;;;;;;;;;;5077088;28;20399;-70
2022/09/04 01:52:05;;;;;;;1999.90;999.90;;;;;;;;;;5066404;28;20445;-70
2022/09/04 01:54:42;;;;;;;1999.90;999.90;;;;;;;;;;5066583;28;20426;-69
2022/09/04 01:57:15;;;;;;;1999.90;999.90;;;;;;;;;;5080102;27;20427;-70
2022/09/04 01:59:48;;;;;;;1999.90;999.90;;;;;;;;;;5065294;28;20406;-70
2022/09/04 02:02:29;;;;;;;1999.90;999.90;;;;;;;;;;5065673;28;20485;-70
2022/09/04 02:05:01;;;;;;;1999.90;999.90;;;;;;;;;;5065157;28;20503;-69
2022/09/04 02:07:38;;;;;;;1999.90;999.90;;;;;;;;;;5064478;28;20406;-70
2022/09/04 02:10:11;;;;;;;1999.90;999.90;;;;;;;;;;5066364;28;20425;-69
2022/09/04 02:12:49;;;;;;;1999.90;999.90;;;;;;;;;;5073166;28;20403;-70
2022/09/04 02:15:25;;;;;;;1999.90;999.90;;;;;;;;;;5063116;28;20427;-69
2022/09/04 02:17:57;;;;;;;1999.90;999.90;;;;;;;;;;5065069;28;20897;-69
2022/09/04 02:20:26;;;;;;;1999.90;999.90;;;;;;;;;;5063765;28;20848;-69
2022/09/04 02:22:58;;;;;;;1999.90;999.90;;;;;;;;;;5064041;28;20396;-69
2022/09/04 02:25:28;;;;;;;1999.90;999.90;;;;;;;;;;5056284;28;20410;-69
2022/09/04 02:28:05;;;;;;;1999.90;999.90;;;;;;;;;;5057595;28;20465;-70
2022/09/04 02:30:37;;;;;;;1999.90;999.90;;;;;;;;;;5065127;28;20495;-69
2022/09/04 02:33:08;;;;;;;1999.90;999.90;;;;;;;;;;5065963;28;20401;-70
2022/09/04 02:35:38;;;;;;;1999.90;999.90;;;;;;;;;;5063718;28;20387;-69
2022/09/04 02:38:12;;;;;;;1999.90;999.90;;;;;;;;;;5063483;28;20403;-68
2022/09/04 02:40:47;;;;;;;1999.90;999.90;;;;;;;;;;5066256;28;20450;-70
2022/09/04 02:43:21;;;;;;;1999.90;999.90;;;;;;;;;;5063769;28;22245;-69
2022/09/04 02:45:53;;;;;;;1999.90;999.90;;;;;;;;;;5058661;28;20415;-70
2022/09/04 02:48:28;;;;;;;1999.90;999.90;;;;;;;;;;5062735;28;20418;-69
2022/09/04 02:51:12;;;;;;;1999.90;999.90;;;;;;;;;;5063845;28;20382;-69
2022/09/04 02:53:45;;;;;;;1999.90;999.90;;;;;;;;;;5064997;28;20900;-69
2022/09/04 02:56:22;;;;;;;1999.90;999.90;;;;;;;;;;5065659;28;20512;-69
2022/09/04 02:58:57;;;;;;;1999.90;999.90;;;;;;;;;;5048514;28;21664;-70
2022/09/04 03:01:27;;;;;;;1999.90;999.90;;;;;;;;;;5067669;28;20401;-69
2022/09/04 03:04:00;;;;;;;1999.90;999.90;;;;;;;;;;5064108;28;20402;-69
2022/09/04 03:06:40;;;;;;;1999.90;999.90;;;;;;;;;;5064946;28;20909;-69
2022/09/04 03:09:10;;;;;;;1999.90;999.90;;;;;;;;;;5069201;28;20408;-70
2022/09/04 03:11:40;;;;;;;1999.90;999.90;;;;;;;;;;5076977;28;20406;-69
2022/09/04 03:14:14;;;;;;;1999.90;999.90;;;;;;;;;;5065638;28;20397;-70
2022/09/04 03:16:44;;;;;;;1999.90;999.90;;;;;;;;;;5065894;28;20395;-70
2022/09/04 03:19:14;;;;;;;1999.90;999.90;;;;;;;;;;5066517;28;20498;-70
2022/09/04 03:21:48;;;;;;;1999.90;999.90;;;;;;;;;;5066386;28;20403;-70
2022/09/04 03:24:21;;;;;;;1999.90;999.90;;;;;;;;;;5064907;28;20899;-70
2022/09/04 03:26:51;;;;;;;1999.90;999.90;;;;;;;;;;5065288;28;20994;-70
2022/09/04 03:29:23;;;;;;;1999.90;999.90;;;;;;;;;;5085393;27;20425;-69
2022/09/04 03:31:57;;;;;;;1999.90;999.90;;;;;;;;;;5068231;28;20416;-70
2022/09/04 03:34:39;;;;;;;1999.90;999.90;;;;;;;;;;5068650;28;20395;-70
2022/09/04 03:37:14;;;;;;;1999.90;999.90;;;;;;;;;;5071394;28;20522;-69
2022/09/04 03:39:48;;;;;;;1999.90;999.90;;;;;;;;;;5071362;28;20413;-68
2022/09/04 03:42:20;;;;;;;1999.90;999.90;;;;;;;;;;5070897;28;21288;-69
2022/09/04 03:44:56;;;;;;;1999.90;999.90;;;;;;;;;;5071017;28;20498;-69
2022/09/04 03:47:27;;;;;;;1999.90;999.90;;;;;;;;;;5072451;28;20405;-69
2022/09/04 03:50:03;;;;;;;1999.90;999.90;;;;;;;;;;5067801;28;20417;-69
2022/09/04 03:52:34;;;;;;;1999.90;999.90;;;;;;;;;;5069536;28;20396;-69
2022/09/04 03:55:10;;;;;;;1999.90;999.90;;;;;;;;;;5069332;28;20863;-70
2022/09/04 03:57:46;;;;;;;1999.90;999.90;;;;;;;;;;5069045;28;20470;-69
2022/09/04 04:00:18;;;;;;;1999.90;999.90;;;;;;;;;;5070494;28;20403;-68
2022/09/04 04:02:59;;;;;;;1999.90;999.90;;;;;;;;;;5071364;28;20448;-70
2022/09/04 04:05:35;;;;;;;1999.90;999.90;;;;;;;;;;5067689;28;21075;-70
2022/09/04 04:08:10;;;;;;;1999.90;999.90;;;;;;;;;;5067335;28;20418;-69
2022/09/04 04:10:45;;;;;;;1999.90;999.90;;;;;;;;;;5073001;28;20869;-70
2022/09/04 04:13:20;;;;;;;1999.90;999.90;;;;;;;;;;5070894;28;20400;-68
2022/09/04 04:15:58;;;;;;;1999.90;999.90;;;;;;;;;;5079502;28;20406;-68
2022/09/04 04:18:47;;;;;;;1999.90;999.90;;;;;;;;;;5078881;28;20402;-68
2022/09/04 04:21:20;;;;;;;1999.90;999.90;;;;;;;;;;5067008;28;20922;-70
2022/09/04 04:24:02;;;;;;;1999.90;999.90;;;;;;;;;;5079803;28;20410;-70
2022/09/04 04:26:39;;;;;;;1999.90;999.90;;;;;;;;;;5069413;28;20881;-69
2022/09/04 04:29:16;;;;;;;1999.90;999.90;;;;;;;;;;5083062;27;20417;-69
2022/09/04 04:34:40;;;;;;;1999.90;999.90;;;;;;;;;;5068756;28;20393;-70
2022/09/04 04:37:12;;;;;;;1999.90;999.90;;;;;;;;;;5068330;28;20396;-69
2022/09/04 04:39:45;;;;;;;1999.90;999.90;;;;;;;;;;5072962;28;20397;-68
2022/09/04 04:42:19;;;;;;;1999.90;999.90;;;;;;;;;;5065240;28;20415;-68
2022/09/04 04:48:09;;;;;;;1999.90;999.90;;;;;;;;;;5067641;28;20394;-69
2022/09/04 04:50:42;;;;;;;1999.90;999.90;;;;;;;;;;5064870;28;20400;-68
2022/09/04 04:53:14;;;;;;;1999.90;999.90;;;;;;;;;;5068684;28;20417;-69
2022/09/04 04:55:49;;;;;;;1999.90;999.90;;;;;;;;;;5065560;28;21800;-68
2022/09/04 04:58:24;;;;;;;1999.90;999.90;;;;;;;;;;5067669;28;21089;-69
2022/09/04 05:00:57;;;;;;;1999.90;999.90;;;;;;;;;;5070502;28;20597;-69
2022/09/04 05:03:31;;;;;;;1999.90;999.90;;;;;;;;;;5064731;28;20401;-67
2022/09/04 05:06:01;;;;;;;1999.90;999.90;;;;;;;;;;5066635;28;20885;-68
2022/09/04 05:08:36;;;;;;;1999.90;999.90;;;;;;;;;;5066163;28;20420;-67
2022/09/04 05:11:08;;;;;;;1999.90;999.90;;;;;;;;;;5083895;27;20398;-69
2022/09/04 05:13:40;;;;;;;1999.90;999.90;;;;;;;;;;5071364;28;20413;-68
2022/09/04 05:16:12;;;;;;;1999.90;999.90;;;;;;;;;;5060399;28;20402;-69
2022/09/04 05:18:52;;;;;;;1999.90;999.90;;;;;;;;;;5070454;28;20432;-69
2022/09/04 05:21:22;;;;;;;1999.90;999.90;;;;;;;;;;5065982;28;20413;-68
2022/09/04 05:23:52;;;;;;;1999.90;999.90;;;;;;;;;;5077179;28;20417;-69
2022/09/04 05:26:24;;;;;;;1999.90;999.90;;;;;;;;;;5067209;28;20389;-67
2022/09/04 05:28:56;;;;;;;1999.90;999.90;;;;;;;;;;5078300;28;20393;-68
2022/09/04 05:31:30;;;;;;;1999.90;999.90;;;;;;;;;;5065299;28;21080;-68
2022/09/04 05:34:02;;;;;;;1999.90;999.90;;;;;;;;;;5074861;28;20465;-67
2022/09/04 05:36:36;;;;;;;1999.90;999.90;;;;;;;;;;5064147;28;20479;-67
2022/09/04 05:39:07;;;;;;;1999.90;999.90;;;;;;;;;;5063605;28;20498;-68
2022/09/04 05:41:39;;;;;;;1999.90;999.90;;;;;;;;;;5065454;28;20421;-68
2022/09/04 05:44:14;;;;;;;1999.90;999.90;;;;;;;;;;5069975;28;20429;-68
2022/09/04 05:46:48;;;;;;;1999.90;999.90;;;;;;;;;;5076700;28;20409;-68
2022/09/04 05:49:28;;;;;;;1999.90;999.90;;;;;;;;;;5064980;28;20536;-67
2022/09/04 05:52:25;;;;;;;1999.90;999.90;;;;;;;;;;5064460;28;20406;-67
2022/09/04 05:55:05;;;;;;;1999.90;999.90;;;;;;;;;;5079953;27;20533;-68
2022/09/04 05:57:42;;;;;;;1999.90;999.90;;;;;;;;;;5067237;28;20399;-68
2022/09/04 06:00:13;;;;;;;1999.90;999.90;;;;;;;;;;5064093;28;20407;-69
2022/09/04 06:02:56;;;;;;;1999.90;999.90;;;;;;;;;;5047613;28;20409;-69
2022/09/04 06:05:29;;;;;;;1999.90;999.90;;;;;;;;;;5066450;28;20414;-68
2022/09/04 06:08:00;;;;;;;1999.90;999.90;;;;;;;;;;5059886;28;21757;-68
2022/09/04 06:10:34;;;;;;;1999.90;999.90;;;;;;;;;;5067154;28;20423;-68
2022/09/04 06:13:18;;;;;;;1999.90;999.90;;;;;;;;;;5064595;28;20387;-70
2022/09/04 06:15:50;;;;;;;1999.90;999.90;;;;;;;;;;5085038;27;21664;-70
2022/09/04 06:18:38;;;;;;;1999.90;999.90;;;;;;;;;;5048511;28;20398;-71
2022/09/04 06:21:27;;;;;;;1999.90;999.90;;;;;;;;;;5077513;28;20404;-71
2022/09/04 06:24:07;;;;;;;1999.90;999.90;;;;;;;;;;5069601;28;20425;-70
2022/09/04 06:26:54;;;;;;;1999.90;999.90;;;;;;;;;;5076384;28;20512;-70
2022/09/04 06:29:39;;;;;;;1999.90;999.90;;;;;;;;;;5077629;28;20893;-70
2022/09/04 06:32:22;;;;;;;1999.90;999.90;;;;;;;;;;5074564;28;20397;-70
2022/09/04 06:34:59;;;;;;;1999.90;999.90;;;;;;;;;;5070302;28;20395;-70
2022/09/04 06:37:32;;;;;;;1999.90;999.90;;;;;;;;;;5077957;28;20923;-71
2022/09/04 06:40:10;;;;;;;1999.90;999.90;;;;;;;;;;5075033;28;20401;-71
2022/09/04 06:42:47;;;;;;;1999.90;999.90;;;;;;;;;;5072164;28;20407;-70
2022/09/04 06:45:21;;;;;;;1999.90;999.90;;;;;;;;;;5073341;28;20408;-70
2022/09/04 06:47:59;;;;;;;1999.90;999.90;;;;;;;;;;5075714;28;20399;-70
2022/09/04 06:50:31;;;;;;;1999.90;999.90;;;;;;;;;;5073288;28;20468;-71
2022/09/04 06:53:04;;;;;;;1999.90;999.90;;;;;;;;;;5075981;28;20941;-69
2022/09/04 06:55:38;;;;;;;1999.90;999.90;;;;;;;;;;5076893;28;20389;-70
2022/09/04 06:58:14;;;;;;;1999.90;999.90;;;;;;;;;;5092946;27;20408;-70
2022/09/04 07:00:46;;;;;;;1999.90;999.90;;;;;;;;;;5073592;28;20401;-71
2022/09/04 07:03:20;;;;;;;1999.90;999.90;;;;;;;;;;5065360;28;21995;-70
2022/09/04 07:05:52;;;;;;;1999.90;999.90;;;;;;;;;;5071376;28;20401;-69
2022/09/04 07:08:25;;;;;;;1999.90;999.90;;;;;;;;;;5073562;28;20409;-68
2022/09/04 07:10:58;;;;;;;1999.90;999.90;;;;;;;;;;5079289;28;20447;-69
2022/09/04 07:13:47;;;;;;;1999.90;999.90;;;;;;;;;;5100242;27;20904;-70
2022/09/04 07:16:20;;;;;;;1999.90;999.90;;;;;;;;;;5050288;28;20960;-69
2022/09/04 07:18:54;;;;;;;1999.90;999.90;;;;;;;;;;5074613;28;20528;-69
2022/09/04 07:21:27;;;;;;;1999.90;999.90;;;;;;;;;;5075625;28;20402;-69
2022/09/04 07:24:02;;;;;;;1999.90;999.90;;;;;;;;;;5079648;28;20496;-70
2022/09/04 07:26:37;;;;;;;1999.90;999.90;;;;;;;;;;5078762;28;20400;-70
2022/09/04 07:29:22;;;;;;;1999.90;999.90;;;;;;;;;;5077406;28;20901;-69
2022/09/04 07:31:56;;;;;;;1999.90;999.90;;;;;;;;;;5083966;28;20879;-69
2022/09/04 07:34:27;;;;;;;1999.90;999.90;;;;;;;;;;5074256;28;20410;-70
2022/09/04 07:36:58;;;;;;;1999.90;999.90;;;;;;;;;;5078577;28;20417;-69
2022/09/04 07:39:30;;;;;;;1999.90;999.90;;;;;;;;;;5075734;28;20517;-68
2022/09/04 07:42:04;;;;;;;1999.90;999.90;;;;;;;;;;5079629;28;20447;-70
2022/09/04 07:44:35;;;;;;;1999.90;999.90;;;;;;;;;;5076152;28;20426;-70
2022/09/04 07:47:10;;;;;;;1999.90;999.90;;;;;;;;;;5078439;28;20393;-69
2022/09/04 07:49:42;;;;;;;1999.90;999.90;;;;;;;;;;5075638;28;21370;-69
2022/09/04 07:52:20;;;;;;;1999.90;999.90;;;;;;;;;;5055249;28;20431;-71
2022/09/04 07:54:55;;;;;;;1999.90;999.90;;;;;;;;;;5073212;28;20426;-70
2022/09/04 07:57:39;;;;;;;1999.90;999.90;;;;;;;;;;5073607;28;20389;-69
2022/09/04 08:00:08;;;;;;;1999.90;999.90;;;;;;;;;;5076374;28;20409;-69
2022/09/04 08:02:55;;;;;;;1999.90;999.90;;;;;;;;;;5070547;28;20496;-70
2022/09/04 08:05:24;;;;;;;1999.90;999.90;;;;;;;;;;5074175;28;20393;-71
2022/09/04 08:08:06;;;;;;;1999.90;999.90;;;;;;;;;;5075925;28;20392;-71
2022/09/04 08:10:37;;;;;;;1999.90;999.90;;;;;;;;;;5073866;28;20418;-71
2022/09/04 08:13:21;;;;;;;1999.90;999.90;;;;;;;;;;5072416;28;20415;-71
2022/09/04 08:15:57;;;;;;;1999.90;999.90;;;;;;;;;;5076218;28;20472;-69
2022/09/04 08:18:35;;;;;;;1999.90;999.90;;;;;;;;;;5073889;28;20406;-70
2022/09/04 08:21:17;;;;;;;1999.90;999.90;;;;;;;;;;5073379;28;20410;-72
2022/09/04 08:23:54;;;;;;;1999.90;999.90;;;;;;;;;;5076167;28;20404;-70
2022/09/04 08:26:29;;;;;;;1999.90;999.90;;;;;;;;;;5077007;28;20415;-69
2022/09/04 08:29:07;;;;;;;1999.90;999.90;;;;;;;;;;5074967;28;20411;-70
2022/09/04 08:31:40;;;;;;;1999.90;999.90;;;;;;;;;;5073525;28;20417;-70
2022/09/04 08:34:23;;;;;;;1999.90;999.90;;;;;;;;;;5077599;28;20389;-69
2022/09/04 08:36:55;;;;;;;1999.90;999.90;;;;;;;;;;5071664;28;20413;-69
2022/09/04 08:39:27;;;;;;;1999.90;999.90;;;;;;;;;;5070376;28;20413;-70
2022/09/04 08:42:13;;;;;;;1999.90;999.90;;;;;;;;;;5071922;28;20873;-69
2022/09/04 08:45:10;;;;;;;1999.90;999.90;;;;;;;;;;5077333;28;20464;-70
2022/09/04 08:47:59;;;;;;;1999.90;999.90;;;;;;;;;;5092494;27;20400;-71
2022/09/04 08:50:50;;;;;;;1999.90;999.90;;;;;;;;;;5079194;28;20391;-71
2022/09/04 08:53:33;;;;;;;1999.90;999.90;;;;;;;;;;5074359;28;20487;-69
2022/09/04 08:56:06;;;;;;;1999.90;999.90;;;;;;;;;;5071275;28;20382;-69
2022/09/04 08:58:55;;;;;;;1999.90;999.90;;;;;;;;;;5073690;28;20396;-70
2022/09/04 09:01:36;;;;;;;1999.90;999.90;;;;;;;;;;5072805;28;20410;-70
2022/09/04 09:04:14;;;;;;;1999.90;999.90;;;;;;;;;;5070205;28;20509;-68
2022/09/04 09:06:52;;;;;;;1999.90;999.90;;;;;;;;;;5088714;27;20385;-69
2022/09/04 09:09:39;;;;;;;1999.90;999.90;;;;;;;;;;5071253;28;21641;-69
2022/09/04 09:12:21;;;;;;;1999.90;999.90;;;;;;;;;;5062691;28;20396;-70
2022/09/04 09:15:08;;;;;;;1999.90;999.90;;;;;;;;;;5064047;28;20427;-70
2022/09/04 09:17:37;;;;;;;1999.90;999.90;;;;;;;;;;5071074;28;20402;-69
2022/09/04 09:20:18;;;;;;;1999.90;999.90;;;;;;;;;;5077803;28;20432;-69
2022/09/04 09:23:08;;;;;;;1999.90;999.90;;;;;;;;;;5068557;28;20409;-70
2022/09/04 09:25:43;;;;;;;1999.90;999.90;;;;;;;;;;5067883;28;20389;-70
2022/09/04 09:28:37;;;;;;;1999.90;999.90;;;;;;;;;;5070677;28;20781;-70
2022/09/04 09:31:33;;;;;;;1999.90;999.90;;;;;;;;;;5076843;28;20400;-69
2022/09/04 09:34:18;;;;;;;1999.90;999.90;;;;;;;;;;5051118;28;20409;-69
2022/09/04 09:36:58;;;;;;;1999.90;999.90;;;;;;;;;;5078360;28;20459;-68
2022/09/04 09:39:37;;;;;;;1999.90;999.90;;;;;;;;;;5085062;27;20467;-69
2022/09/04 09:42:34;;;;;;;1999.90;999.90;;;;;;;;;;5075130;28;20405;-69
2022/09/04 09:45:29;;;;;;;1999.90;999.90;;;;;;;;;;5076058;28;20466;-69
2022/09/04 09:48:07;;;;;;;1999.90;999.90;;;;;;;;;;5040169;28;20415;-69
2022/09/04 09:50:48;;;;;;;1999.90;999.90;;;;;;;;;;5070005;28;20391;-69
2022/09/04 09:53:34;;;;;;;1999.90;999.90;;;;;;;;;;5081601;27;20444;-69
2022/09/04 09:56:32;;;;;;;1999.90;999.90;;;;;;;;;;5071657;28;20401;-71
2022/09/04 09:59:15;;;;;;;1999.90;999.90;;;;;;;;;;4985835;28;20962;-69
2022/09/04 10:01:58;;;;;;;1999.90;999.90;;;;;;;;;;5059410;28;20398;-68
2022/09/04 10:04:40;;;;;;;1999.90;999.90;;;;;;;;;;5035021;28;20417;-68
2022/09/04 10:07:28;;;;;;;1999.90;999.90;;;;;;;;;;5069934;27;21256;-68
2022/09/04 10:10:09;;;;;;;1999.90;999.90;;;;;;;;;;5075559;28;20405;-68
2022/09/04 10:12:49;;;;;;;1999.90;999.90;;;;;;;;;;5072249;28;20505;-69
2022/09/04 10:15:45;;;;;;;1999.90;999.90;;;;;;;;;;5069598;28;20473;-68
2022/09/04 10:18:39;;;;;;;1999.90;999.90;;;;;;;;;;5069486;28;20450;-69
2022/09/04 10:21:23;;;;;;;1999.90;999.90;;;;;;;;;;5074553;28;20425;-68
2022/09/04 10:24:25;;;;;;;1999.90;999.90;;;;;;;;;;5060081;28;21212;-70
2022/09/04 10:27:13;;;;;;;1999.90;999.90;;;;;;;;;;5072060;28;20399;-68
2022/09/04 10:29:50;;;;;;;1999.90;999.90;;;;;;;;;;5072616;28;20407;-68
2022/09/04 10:32:31;;;;;;;1999.90;999.90;;;;;;;;;;5075126;28;20430;-69
2022/09/04 10:35:17;;;;;;;1999.90;999.90;;;;;;;;;;5076861;28;20399;-69
2022/09/04 10:37:55;;;;;;;1999.90;999.90;;;;;;;;;;5083900;27;20916;-70
2022/09/04 10:40:34;;;;;;;1999.90;999.90;;;;;;;;;;5068692;28;20402;-70
2022/09/04 10:43:21;;;;;;;1999.90;999.90;;;;;;;;;;5072319;28;20411;-70
2022/09/04 10:45:54;;;;;;;1999.90;999.90;;;;;;;;;;5072406;28;21185;-68
2022/09/04 10:48:47;;;;;;;1999.90;999.90;;;;;;;;;;5056138;28;20387;-69
2022/09/04 10:51:34;;;;;;;1999.90;999.90;;;;;;;;;;5040819;28;20408;-69
2022/09/04 10:54:21;;;;;;;1999.90;999.90;;;;;;;;;;5086385;27;20406;-69
2022/09/04 10:56:53;;;;;;;1999.90;999.90;;;;;;;;;;5070538;28;20489;-71
2022/09/04 10:59:30;;;;;;;1999.90;999.90;;;;;;;;;;5071129;28;20887;-71
2022/09/04 11:02:18;;;;;;;1999.90;999.90;;;;;;;;;;5076088;28;20818;-70
2022/09/04 11:05:19;;;;;;;1999.90;999.90;;;;;;;;;;5076754;28;20401;-70
2022/09/04 11:08:08;;;;;;;1999.90;999.90;;;;;;;;;;5074199;28;20876;-71
2022/09/04 11:10:49;;;;;;;1999.90;999.90;;;;;;;;;;5061392;28;20406;-71
2022/09/04 11:13:39;;;;;;;1999.90;999.90;;;;;;;;;;5072597;28;20403;-69
2022/09/04 11:16:28;;;;;;;1999.90;999.90;;;;;;;;;;5068030;28;20413;-70
2022/09/04 11:19:04;;;;;;;1999.90;999.90;;;;;;;;;;5071177;28;20408;-68
2022/09/04 11:21:42;;;;;;;1999.90;999.90;;;;;;;;;;5067258;28;20484;-69
2022/09/04 11:24:29;;;;;;;1999.90;999.90;;;;;;;;;;5064550;28;20391;-69
2022/09/04 11:27:14;;;;;;;1999.90;999.90;;;;;;;;;;5071476;28;20935;-69
2022/09/04 11:29:54;;;;;;;1999.90;999.90;;;;;;;;;;5070628;28;20415;-70
2022/09/04 11:32:33;;;;;;;1999.90;999.90;;;;;;;;;;5072668;28;20735;-69
2022/09/04 11:35:21;;;;;;;1999.90;999.90;;;;;;;;;;5068622;28;20391;-69
2022/09/04 11:37:58;;;;;;;1999.90;999.90;;;;;;;;;;5069662;28;21030;-69
2022/09/04 11:40:45;;;;;;;1999.90;999.90;;;;;;;;;;5074259;28;20488;-69
2022/09/04 11:43:30;;;;;;;1999.90;999.90;;;;;;;;;;5067168;28;20432;-70
2022/09/04 11:46:09;;;;;;;1999.90;999.90;;;;;;;;;;5035680;28;20407;-68
2022/09/04 11:48:59;;;;;;;1999.90;999.90;;;;;;;;;;5057281;28;20404;-69
2022/09/04 11:51:45;;;;;;;1999.90;999.90;;;;;;;;;;5063285;28;20443;-68
2022/09/04 11:54:31;;;;;;;1999.90;999.90;;;;;;;;;;5082116;27;20399;-69
2022/09/04 11:57:04;;;;;;;1999.90;999.90;;;;;;;;;;5068752;28;20404;-68
2022/09/04 11:59:42;;;;;;;1999.90;999.90;;;;;;;;;;5071325;28;20418;-70
2022/09/04 12:02:30;;;;;;;1999.90;999.90;;;;;;;;;;5069467;28;20425;-68
2022/09/04 12:05:05;;;;;;;1999.90;999.90;;;;;;;;;;5052105;28;20396;-68
2022/09/04 12:07:43;;;;;;;1999.90;999.90;;;;;;;;;;5068159;28;20410;-69
2022/09/04 12:10:25;;;;;;;1999.90;999.90;;;;;;;;;;5073169;28;20423;-71
2022/09/04 12:13:09;;;;;;;1999.90;999.90;;;;;;;;;;5069864;28;20464;-70
2022/09/04 12:15:53;;;;;;;1999.90;999.90;;;;;;;;;;5056021;28;20386;-72
2022/09/04 12:18:45;;;;;;;1999.90;999.90;;;;;;;;;;5068418;28;20407;-75
2022/09/04 12:21:39;;;;;;;1999.90;999.90;;;;;;;;;;5041472;28;21309;-75
2022/09/04 12:24:13;;;;;;;1999.90;999.90;;;;;;;;;;5068884;28;20487;-75
2022/09/04 12:27:00;;;;;;;1999.90;999.90;;;;;;;;;;5072444;28;20412;-76
2022/09/04 12:29:37;;;;;;;1999.90;999.90;;;;;;;;;;5067414;28;20425;-75
2022/09/04 12:32:17;;;;;;;1999.90;999.90;;;;;;;;;;5065969;28;20425;-74
2022/09/04 12:34:53;;;;;;;1999.90;999.90;;;;;;;;;;5076191;28;20878;-74
2022/09/04 12:37:42;;;;;;;1999.90;999.90;;;;;;;;;;5071069;28;20407;-75
2022/09/04 12:40:40;;;;;;;1999.90;999.90;;;;;;;;;;5074277;28;20382;-83
2022/09/04 12:43:19;;;;;;;1999.90;999.90;;;;;;;;;;5078357;28;20415;-80
2022/09/04 12:45:51;;;;;;;1999.90;999.90;;;;;;;;;;5076248;28;22050;-82
2022/09/04 12:48:30;;;;;;;1999.90;999.90;;;;;;;;;;5081140;28;20544;-81
2022/09/04 12:51:08;;;;;;;1999.90;999.90;;;;;;;;;;5080067;28;21179;-81
2022/09/04 12:53:48;;;;;;;1999.90;999.90;;;;;;;;;;5072986;28;20403;-84
2022/09/04 12:56:25;;;;;;;1999.90;999.90;;;;;;;;;;5077333;28;20463;-76
2022/09/04 12:59:00;;;;;;;1999.90;999.90;;;;;;;;;;5071882;28;20774;-75
2022/09/04 13:01:35;;;;;;;1999.90;999.90;;;;;;;;;;5066213;28;20405;-75
2022/09/04 13:04:08;;;;;;;1999.90;999.90;;;;;;;;;;5061724;28;20970;-74
2022/09/04 13:06:42;;;;;;;1999.90;999.90;;;;;;;;;;5061837;28;20436;-75
2022/09/04 13:09:17;;;;;;;1999.90;999.90;;;;;;;;;;5084292;27;20754;-75
2022/09/04 13:11:53;;;;;;;1999.90;999.90;;;;;;;;;;5065716;28;20404;-74
2022/09/04 13:14:28;;;;;;;1999.90;999.90;;;;;;;;;;5065048;28;20419;-74
2022/09/04 13:16:58;;;;;;;1999.90;999.90;;;;;;;;;;5068364;28;20522;-74
2022/09/04 13:19:28;;;;;;;1999.90;999.90;;;;;;;;;;5073130;28;21745;-73
2022/09/04 13:22:06;;;;;;;1999.90;999.90;;;;;;;;;;5064947;28;20781;-75
2022/09/04 13:24:40;;;;;;;1999.90;999.90;;;;;;;;;;5067224;28;20424;-74
2022/09/04 13:27:25;;;;;;;1999.90;999.90;;;;;;;;;;5065120;28;20394;-76
2022/09/04 13:30:02;;;;;;;1999.90;999.90;;;;;;;;;;5069864;28;20402;-73
2022/09/04 13:32:49;;;;;;;1999.90;999.90;;;;;;;;;;5062929;28;21471;-75
2022/09/04 13:35:23;;;;;;;1999.90;999.90;;;;;;;;;;5064432;28;20909;-74
2022/09/04 13:37:59;;;;;;;1999.90;999.90;;;;;;;;;;5073585;28;20967;-74
2022/09/04 13:40:37;;;;;;;1999.90;999.90;;;;;;;;;;5066307;28;20976;-74
2022/09/04 13:43:17;;;;;;;1999.90;999.90;;;;;;;;;;5072622;28;20764;-74
2022/09/04 13:45:47;;;;;;;1999.90;999.90;;;;;;;;;;5068711;28;20417;-74
2022/09/04 13:48:20;;;;;;;1999.90;999.90;;;;;;;;;;5076366;28;20392;-74
2022/09/04 13:50:54;;;;;;;1999.90;999.90;;;;;;;;;;5079403;28;20401;-74
2022/09/04 13:53:24;;;;;;;1999.90;999.90;;;;;;;;;;5073476;28;20418;-74
2022/09/04 13:55:56;;;;;;;1999.90;999.90;;;;;;;;;;5076700;28;20409;-73
2022/09/04 13:58:28;;;;;;;1999.90;999.90;;;;;;;;;;5065165;28;20434;-74
2022/09/04 14:00:58;;;;;;;1999.90;999.90;;;;;;;;;;5068462;28;20943;-74
2022/09/04 14:03:30;;;;;;;1999.90;999.90;;;;;;;;;;5066721;28;20960;-74
2022/09/04 14:05:59;;;;;;;1999.90;999.90;;;;;;;;;;5074905;28;20418;-73
2022/09/04 14:08:30;;;;;;;1999.90;999.90;;;;;;;;;;5084930;27;20505;-74
2022/09/04 14:11:14;;;;;;;1999.90;999.90;;;;;;;;;;5066136;28;20394;-73
2022/09/04 14:13:50;;;;;;;1999.90;999.90;;;;;;;;;;5076717;28;20418;-74
2022/09/04 14:16:21;;;;;;;1999.90;999.90;;;;;;;;;;5067654;28;20517;-74
2022/09/04 14:19:00;;;;;;;1999.90;999.90;;;;;;;;;;5068349;28;20393;-75
2022/09/04 14:21:46;;;;;;;1999.90;999.90;;;;;;;;;;5065221;28;20414;-74
2022/09/04 14:24:17;;;;;;;1999.90;999.90;;;;;;;;;;5066639;28;21144;-74
2022/09/04 14:26:49;;;;;;;1999.90;999.90;;;;;;;;;;5071136;28;20513;-74
2022/09/04 14:29:22;;;;;;;1999.90;999.90;;;;;;;;;;5067862;28;20409;-75
2022/09/04 14:31:56;;;;;;;1999.90;999.90;;;;;;;;;;5065790;28;20922;-74
2022/09/04 14:34:30;;;;;;;1999.90;999.90;;;;;;;;;;5048610;28;20527;-75
2022/09/04 14:37:00;;;;;;;1999.90;999.90;;;;;;;;;;5068364;28;20417;-73
2022/09/04 14:39:31;;;;;;;1999.90;999.90;;;;;;;;;;5068054;28;20405;-75
2022/09/04 14:42:06;;;;;;;1999.90;999.90;;;;;;;;;;5065883;28;20402;-75
2022/09/04 14:44:42;;;;;;;1999.90;999.90;;;;;;;;;;5071905;28;20396;-74